Time;durP1;ratioP1;P1;durP2;ratioP2;P2;SDS_P1;SDS_P2;PMS_P1;PMS_P2;Temp;Humidity;BMP_temperature;BMP_pressure;BME280_temperature;BME280_humidity;BME280_pressure;Samples;Min_cycle;Max_cycle;Signal;HPM_P1;HPM_P2
2022/01/29 00:02:03;;;;;;;;;;;;;;;-13.50;93.76;100127.81;5075815;28;20290;-68
2022/01/29 00:04:30;;;;;;;;;;;;;;;-13.53;94.31;100120.22;5075714;28;20375;-69
2022/01/29 00:06:57;;;;;;;;;;;;;;;-13.48;95.19;100111.19;5075661;28;19929;-66
2022/01/29 00:09:23;;;;;;;;;;;;;;;-13.44;94.89;100115.47;5075549;28;20401;-66
2022/01/29 00:11:50;;;;;;;;;;;;;;;-13.42;95.07;100103.88;5075896;28;20264;-66
2022/01/29 00:14:16;;;;;;;;;;;;;;;-13.27;94.37;100107.66;5075486;28;20390;-65
2022/01/29 00:16:44;;;;;;;;;;;;;;;-13.15;92.73;100092.97;5064467;22;19929;-68
2022/01/29 00:19:11;;;;;;;;;;;;;;;-13.11;91.67;100077.22;5035534;28;19948;-69
2022/01/29 00:21:38;;;;;;;;;;;;;;;-13.04;92.38;100084.13;5035528;28;19925;-70
2022/01/29 00:24:04;;;;;;;;;;;;;;;-13.05;91.39;100079.06;5035808;28;19925;-67
2022/01/29 00:26:31;;;;;;;;;;;;;;;-13.10;91.42;100076.44;5045198;28;19925;-66
2022/01/29 00:28:58;;;;;;;;;;;;;;;-13.10;91.72;100071.44;5054158;28;19925;-68
2022/01/29 00:31:25;;;;;;;;;;;;;;;-13.29;91.68;100069.22;5054865;28;19929;-67
2022/01/29 00:33:53;;;;;;;;;;;;;;;-13.42;92.72;100058.81;5055070;28;19929;-64
2022/01/29 00:36:19;;;;;;;;;;;;;;;-13.53;93.46;100061.81;5055061;28;20372;-63
2022/01/29 00:38:46;;;;;;;;;;;;;;;-13.58;93.96;100049.16;5055047;28;20293;-67
2022/01/29 00:41:12;;;;;;;;;;;;;;;-13.56;94.62;100055.06;5054532;28;19932;-68
2022/01/29 00:43:39;;;;;;;;;;;;;;;-13.50;95.15;100047.72;5055305;28;19929;-62
2022/01/29 00:46:06;;;;;;;;;;;;;;;-13.47;94.90;100031.97;5054948;28;19925;-66
2022/01/29 00:48:32;;;;;;;;;;;;;;;-13.45;95.04;100032.88;5055494;28;20363;-64
2022/01/29 00:51:02;;;;;;;;;;;;;;;-13.48;94.25;100023.63;5054969;28;19925;-62
2022/01/29 00:53:28;;;;;;;;;;;;;;;-13.47;94.20;100016.94;5054979;28;19968;-62
2022/01/29 00:55:55;;;;;;;;;;;;;;;-13.47;94.01;100020.28;5054813;28;19925;-62
2022/01/29 00:58:22;;;;;;;;;;;;;;;-13.39;93.94;100013.00;5054756;28;19924;-67
2022/01/29 01:00:48;;;;;;;;;;;;;;;-13.44;92.78;100012.03;5054875;28;19932;-63
2022/01/29 01:03:15;;;;;;;;;;;;;;;-13.46;92.84;100009.50;5054687;28;19939;-62
2022/01/29 01:05:41;;;;;;;;;;;;;;;-13.49;93.50;100006.03;5054568;28;19925;-62
2022/01/29 01:08:11;;;;;;;;;;;;;;;-13.57;93.56;100008.31;5054763;28;19932;-63
2022/01/29 01:10:37;;;;;;;;;;;;;;;-13.38;93.35;99995.56;5054829;28;19925;-63
2022/01/29 01:13:04;;;;;;;;;;;;;;;-13.35;92.73;99992.28;5054604;28;19931;-62
2022/01/29 01:15:30;;;;;;;;;;;;;;;-13.33;92.47;99995.69;5054932;28;19909;-67
2022/01/29 01:17:57;;;;;;;;;;;;;;;-13.06;92.09;99988.06;5054326;28;19924;-63
2022/01/29 01:20:24;;;;;;;;;;;;;;;-13.31;91.16;99980.69;5054418;28;19925;-63
2022/01/29 01:22:50;;;;;;;;;;;;;;;-13.56;91.65;99980.00;5054330;28;19932;-68
2022/01/29 01:25:18;;;;;;;;;;;;;;;-13.57;92.29;99975.78;5054282;28;20286;-66
2022/01/29 01:27:45;;;;;;;;;;;;;;;-13.72;92.13;99956.16;5054276;28;20397;-65
2022/01/29 01:30:12;;;;;;;;;;;;;;;-13.75;93.00;99957.72;5054291;28;19925;-67
2022/01/29 01:32:39;;;;;;;;;;;;;;;-13.77;92.47;99966.84;5054359;28;19931;-67
2022/01/29 01:35:12;;;;;;;;;;;;;;;-13.83;92.16;99955.84;5054147;28;20393;-63
2022/01/29 01:37:45;;;;;;;;;;;;;;;-13.59;90.87;99959.88;5054218;28;19925;-67
2022/01/29 01:40:13;;;;;;;;;;;;;;;-13.49;89.12;99951.81;5054194;28;19924;-66
2022/01/29 01:42:40;;;;;;;;;;;;;;;-13.51;88.66;99948.47;5054224;28;19925;-63
2022/01/29 01:45:07;;;;;;;;;;;;;;;-13.41;89.82;99949.53;5053794;28;19932;-62
2022/01/29 01:47:34;;;;;;;;;;;;;;;-13.50;90.50;99941.78;5054143;28;19929;-62
2022/01/29 01:50:01;;;;;;;;;;;;;;;-13.42;91.83;99945.34;5053892;28;19929;-61
2022/01/29 01:52:28;;;;;;;;;;;;;;;-13.18;91.50;99937.63;5052742;28;20367;-62
2022/01/29 01:54:55;;;;;;;;;;;;;;;-12.97;91.43;99928.22;5053817;28;19925;-64
2022/01/29 01:57:21;;;;;;;;;;;;;;;-13.03;91.24;99935.53;5053678;28;19932;-62
2022/01/29 01:59:49;;;;;;;;;;;;;;;-13.17;91.50;99924.34;5053633;28;19947;-62
2022/01/29 02:02:16;;;;;;;;;;;;;;;-13.19;91.47;99915.94;5053845;28;19932;-65
2022/01/29 02:04:43;;;;;;;;;;;;;;;-13.36;92.18;99912.97;5053839;28;20026;-66
2022/01/29 02:07:09;;;;;;;;;;;;;;;-13.35;92.29;99904.69;5053613;28;19925;-66
2022/01/29 02:09:38;;;;;;;;;;;;;;;-13.27;92.26;99903.22;5053677;28;19939;-67
2022/01/29 02:12:05;;;;;;;;;;;;;;;-13.27;92.63;99895.72;5053584;28;19931;-67
2022/01/29 02:14:34;;;;;;;;;;;;;;;-13.05;91.84;99889.56;5053320;28;19924;-66
2022/01/29 02:17:03;;;;;;;;;;;;;;;-12.95;91.72;99883.16;5064720;22;19924;-66
2022/01/29 02:19:30;;;;;;;;;;;;;;;-13.01;91.08;99867.97;5053296;28;19971;-66
2022/01/29 02:21:58;;;;;;;;;;;;;;;-12.96;91.27;99867.28;5053344;28;19933;-66
2022/01/29 02:24:25;;;;;;;;;;;;;;;-12.84;90.95;99853.38;5053020;28;20287;-67
2022/01/29 02:26:52;;;;;;;;;;;;;;;-12.99;91.18;99852.19;5052786;28;20339;-67
2022/01/29 02:29:19;;;;;;;;;;;;;;;-13.07;91.35;99845.28;5052964;28;19931;-67
2022/01/29 02:31:47;;;;;;;;;;;;;;;-13.00;91.18;99842.13;5053250;28;20299;-67
2022/01/29 02:34:13;;;;;;;;;;;;;;;-13.06;91.68;99845.31;5053164;28;19925;-66
2022/01/29 02:36:42;;;;;;;;;;;;;;;-13.07;92.38;99836.13;5052895;28;19948;-66
2022/01/29 02:39:10;;;;;;;;;;;;;;;-13.01;91.99;99826.25;5053011;28;20367;-68
2022/01/29 02:41:39;;;;;;;;;;;;;;;-12.86;92.15;99822.44;5053017;28;19925;-68
2022/01/29 02:44:06;;;;;;;;;;;;;;;-12.58;89.67;99821.44;5052892;28;19925;-68
2022/01/29 02:46:48;;;;;;;;;;;;;;;-12.72;90.78;99816.94;5053032;28;20019;-68
2022/01/29 02:49:15;;;;;;;;;;;;;;;-12.78;91.77;99811.78;5052883;28;19925;-69
2022/01/29 02:51:44;;;;;;;;;;;;;;;-12.66;90.72;99811.25;5052711;28;19925;-69
2022/01/29 02:54:11;;;;;;;;;;;;;;;-12.51;90.18;99809.09;5052870;28;20372;-69
2022/01/29 02:56:38;;;;;;;;;;;;;;;-12.26;89.53;99821.31;5052666;28;19936;-68
2022/01/29 02:59:05;;;;;;;;;;;;;;;-12.45;89.99;99805.03;5052533;28;19925;-68
2022/01/29 03:01:31;;;;;;;;;;;;;;;-12.34;90.28;99803.59;5052771;28;19929;-68
2022/01/29 03:03:58;;;;;;;;;;;;;;;-12.26;89.92;99804.59;5052290;28;19932;-68
2022/01/29 03:06:24;;;;;;;;;;;;;;;-12.18;89.52;99802.25;5052557;28;19925;-69
2022/01/29 03:08:52;;;;;;;;;;;;;;;-12.14;88.81;99812.38;5052480;28;19932;-68
2022/01/29 03:11:20;;;;;;;;;;;;;;;-12.26;90.48;99802.09;5052736;28;19925;-69
2022/01/29 03:13:48;;;;;;;;;;;;;;;-12.14;89.31;99806.53;5051975;28;20299;-68
2022/01/29 03:16:15;;;;;;;;;;;;;;;-12.07;89.99;99795.81;5052801;28;19925;-69
2022/01/29 03:18:41;;;;;;;;;;;;;;;-12.31;91.22;99801.97;5052434;28;20283;-68
2022/01/29 03:21:08;;;;;;;;;;;;;;;-12.04;90.99;99800.91;5052809;28;19931;-68
2022/01/29 03:23:35;;;;;;;;;;;;;;;-12.03;91.23;99797.56;5052399;28;19924;-69
2022/01/29 03:26:01;;;;;;;;;;;;;;;-11.91;90.38;99807.00;5052157;28;19932;-69
2022/01/29 03:28:29;;;;;;;;;;;;;;;-11.78;90.12;99806.41;5052248;28;19925;-69
2022/01/29 03:30:56;;;;;;;;;;;;;;;-11.91;90.82;99802.84;5052293;28;20000;-69
2022/01/29 03:33:22;;;;;;;;;;;;;;;-11.96;90.79;99794.38;5052208;28;19949;-69
2022/01/29 03:35:50;;;;;;;;;;;;;;;-11.86;90.55;99792.91;5052535;28;19924;-69
2022/01/29 03:38:17;;;;;;;;;;;;;;;-11.79;91.10;99779.63;5052493;28;19925;-68
2022/01/29 03:40:45;;;;;;;;;;;;;;;-11.48;89.93;99776.03;5052279;28;19932;-70
2022/01/29 03:43:14;;;;;;;;;;;;;;;-11.41;89.86;99771.94;5052419;28;19925;-68
2022/01/29 03:45:42;;;;;;;;;;;;;;;-11.41;90.15;99765.25;5052175;28;20375;-69
2022/01/29 03:48:09;;;;;;;;;;;;;;;-11.44;90.23;99765.19;5052545;28;19929;-68
2022/01/29 03:50:36;;;;;;;;;;;;;;;-11.43;90.68;99763.53;5052364;28;19925;-68
2022/01/29 03:53:03;;;;;;;;;;;;;;;-11.42;90.74;99757.72;5052363;28;19932;-69
2022/01/29 03:55:29;;;;;;;;;;;;;;;-11.46;91.28;99745.91;5052185;28;19931;-68
2022/01/29 03:57:56;;;;;;;;;;;;;;;-11.34;91.77;99751.16;5052100;28;19925;-69
2022/01/29 04:00:23;;;;;;;;;;;;;;;-11.27;91.61;99742.91;5052021;28;19925;-69
2022/01/29 04:02:50;;;;;;;;;;;;;;;-11.20;91.31;99736.31;5052120;28;19924;-68
2022/01/29 04:05:17;;;;;;;;;;;;;;;-11.19;90.53;99735.50;5051955;28;19925;-68
2022/01/29 04:07:44;;;;;;;;;;;;;;;-11.20;91.74;99742.19;5051850;28;19933;-68
2022/01/29 04:10:12;;;;;;;;;;;;;;;-11.16;91.90;99728.00;5052106;28;19925;-68
2022/01/29 04:12:42;;;;;;;;;;;;;;;-11.15;92.01;99723.81;5051926;28;19931;-68
2022/01/29 04:15:09;;;;;;;;;;;;;;;-11.04;91.41;99720.66;5053197;28;19925;-69
2022/01/29 04:17:36;;;;;;;;;;;;;;;-11.05;91.55;99708.91;5056048;28;19955;-68
2022/01/29 04:20:05;;;;;;;;;;;;;;;-10.98;91.18;99713.22;5055700;28;19924;-68
2022/01/29 04:22:31;;;;;;;;;;;;;;;-11.02;91.50;99705.59;5055703;28;19932;-68
2022/01/29 04:24:58;;;;;;;;;;;;;;;-11.08;92.56;99698.00;5055549;28;19936;-68
2022/01/29 04:27:34;;;;;;;;;;;;;;;-11.03;92.39;99691.38;5055366;28;20375;-69
2022/01/29 04:30:06;;;;;;;;;;;;;;;-11.05;92.50;99680.44;5055554;28;19960;-66
2022/01/29 04:32:55;;;;;;;;;;;;;;;-10.90;92.39;99679.81;5055467;28;19932;-68
2022/01/29 04:35:21;;;;;;;;;;;;;;;-10.77;91.62;99671.63;5055521;28;19925;-66
2022/01/29 04:37:49;;;;;;;;;;;;;;;-10.79;91.41;99669.13;5055257;28;19928;-66
2022/01/29 04:40:16;;;;;;;;;;;;;;;-10.93;93.00;99659.69;5055656;28;19929;-67
2022/01/29 04:42:43;;;;;;;;;;;;;;;-10.84;93.42;99648.09;5055324;28;20291;-66
2022/01/29 04:45:09;;;;;;;;;;;;;;;-10.72;93.37;99637.34;5054990;28;20371;-68
2022/01/29 04:47:36;;;;;;;;;;;;;;;-10.60;92.21;99621.59;5055130;28;19925;-68
2022/01/29 04:50:03;;;;;;;;;;;;;;;-10.82;92.12;99617.94;5055121;28;19929;-68
2022/01/29 04:52:31;;;;;;;;;;;;;;;-10.76;92.35;99620.56;5054981;28;19925;-68
2022/01/29 04:54:58;;;;;;;;;;;;;;;-10.60;92.72;99612.38;5055270;28;19947;-68
2022/01/29 04:57:24;;;;;;;;;;;;;;;-10.60;92.55;99619.06;5055130;28;19925;-68
2022/01/29 04:59:51;;;;;;;;;;;;;;;-10.56;92.44;99614.09;5054957;28;19925;-68
2022/01/29 05:02:17;;;;;;;;;;;;;;;-10.60;92.74;99614.88;5054927;28;19925;-68
2022/01/29 05:04:44;;;;;;;;;;;;;;;-10.64;93.33;99609.78;5055034;28;19929;-66
2022/01/29 05:07:10;;;;;;;;;;;;;;;-10.44;93.00;99602.50;5054601;28;19932;-66
2022/01/29 05:09:38;;;;;;;;;;;;;;;-10.42;93.08;99604.19;5054878;28;19924;-68
2022/01/29 05:12:06;;;;;;;;;;;;;;;-10.50;92.46;99588.19;5054814;28;19932;-68
2022/01/29 05:14:39;;;;;;;;;;;;;;;-10.52;93.43;99587.31;5054701;28;19971;-68
2022/01/29 05:28:12;;;;;;;;;;;;;;;-10.39;93.69;99571.53;5054427;28;20037;-69
2022/01/29 05:30:38;;;;;;;;;;;;;;;-10.17;93.32;99564.16;5054306;28;19924;-67
2022/01/29 05:33:05;;;;;;;;;;;;;;;-10.22;92.90;99555.72;5054000;28;19932;-67
2022/01/29 05:35:31;;;;;;;;;;;;;;;-10.36;93.12;99555.63;5054105;28;19931;-68
2022/01/29 05:37:59;;;;;;;;;;;;;;;-10.33;93.77;99548.13;5054037;28;20011;-67
2022/01/29 05:40:27;;;;;;;;;;;;;;;-10.33;94.42;99543.09;5054083;28;19967;-67
2022/01/29 05:42:54;;;;;;;;;;;;;;;-10.11;94.02;99539.09;5054259;28;19948;-67
2022/01/29 05:45:20;;;;;;;;;;;;;;;-10.02;94.00;99533.28;5053980;28;19925;-68
2022/01/29 05:47:47;;;;;;;;;;;;;;;-9.94;93.79;99536.69;5053949;28;19925;-67
2022/01/29 05:50:14;;;;;;;;;;;;;;;-9.93;92.58;99525.81;5054000;28;19925;-68
2022/01/29 05:52:40;;;;;;;;;;;;;;;-9.96;93.17;99519.09;5053870;28;19928;-68
2022/01/29 05:55:07;;;;;;;;;;;;;;;-9.95;93.80;99513.19;5053699;28;19925;-68
2022/01/29 05:57:35;;;;;;;;;;;;;;;-9.95;93.48;99503.13;5053788;28;19948;-68
2022/01/29 06:00:01;;;;;;;;;;;;;;;-10.01;93.94;99500.59;5053644;28;19948;-68
2022/01/29 06:02:28;;;;;;;;;;;;;;;-10.17;94.61;99493.72;5053854;28;19932;-68
2022/01/29 06:04:54;;;;;;;;;;;;;;;-9.95;94.13;99485.53;5053769;28;19932;-68
2022/01/29 06:07:21;;;;;;;;;;;;;;;-9.98;94.33;99487.19;5053489;28;19924;-68
2022/01/29 06:09:48;;;;;;;;;;;;;;;-9.79;94.15;99489.00;5054138;28;20377;-68
2022/01/29 06:12:14;;;;;;;;;;;;;;;-9.74;93.86;99486.50;5053480;28;20402;-68
2022/01/29 06:14:42;;;;;;;;;;;;;;;-9.55;93.52;99482.44;5053664;28;19932;-67
2022/01/29 06:17:11;;;;;;;;;;;;;;;-9.57;93.88;99479.06;5065565;22;19931;-66
2022/01/29 06:19:37;;;;;;;;;;;;;;;-9.81;93.94;99468.03;5053196;28;19928;-68
2022/01/29 06:22:08;;;;;;;;;;;;;;;-9.59;94.04;99458.06;5053202;28;20279;-68
2022/01/29 06:24:35;;;;;;;;;;;;;;;-9.51;94.34;99454.75;5053253;28;19925;-67
2022/01/29 06:27:02;;;;;;;;;;;;;;;-9.43;94.20;99448.09;5053332;28;19925;-66
2022/01/29 06:29:28;;;;;;;;;;;;;;;-9.37;94.31;99438.88;5053269;28;20403;-69
2022/01/29 06:31:56;;;;;;;;;;;;;;;-9.25;94.19;99427.19;5053358;28;19940;-64
2022/01/29 06:34:23;;;;;;;;;;;;;;;-9.24;94.48;99425.50;5053181;28;20283;-65
2022/01/29 06:36:49;;;;;;;;;;;;;;;-9.19;94.72;99418.81;5052891;28;19962;-68
2022/01/29 06:39:16;;;;;;;;;;;;;;;-9.14;94.64;99403.66;5052714;28;19932;-67
2022/01/29 06:41:42;;;;;;;;;;;;;;;-8.99;95.23;99399.53;5053131;28;19928;-67
2022/01/29 06:44:09;;;;;;;;;;;;;;;-9.00;95.10;99387.75;5052785;28;19932;-64
2022/01/29 06:46:37;;;;;;;;;;;;;;;-8.90;95.15;99382.75;5052931;28;19925;-64
2022/01/29 06:49:05;;;;;;;;;;;;;;;-8.91;94.95;99392.00;5052826;28;20015;-67
2022/01/29 06:51:32;;;;;;;;;;;;;;;-8.81;95.00;99377.69;5052944;28;19936;-65
2022/01/29 06:53:58;;;;;;;;;;;;;;;-8.69;94.93;99387.81;5053121;28;19931;-63
2022/01/29 06:56:25;;;;;;;;;;;;;;;-8.70;94.72;99385.31;5052915;28;19925;-63
2022/01/29 06:58:51;;;;;;;;;;;;;;;-8.66;94.72;99382.75;5052702;28;19925;-63
2022/01/29 07:01:18;;;;;;;;;;;;;;;-8.65;95.35;99371.84;5052507;28;19925;-67
2022/01/29 07:03:44;;;;;;;;;;;;;;;-8.66;94.99;99357.53;5052486;28;19932;-65
2022/01/29 07:06:12;;;;;;;;;;;;;;;-8.61;94.91;99350.81;5052675;28;19932;-64
2022/01/29 07:08:39;;;;;;;;;;;;;;;-8.57;95.06;99337.38;5052412;28;19924;-64
2022/01/29 07:11:06;;;;;;;;;;;;;;;-8.56;94.71;99334.00;5052619;28;19982;-65
2022/01/29 07:13:32;;;;;;;;;;;;;;;-8.55;94.93;99319.75;5052844;28;19925;-67
2022/01/29 07:15:59;;;;;;;;;;;;;;;-8.48;94.78;99315.50;5064451;22;19909;-67
2022/01/29 07:18:26;;;;;;;;;;;;;;;-8.45;94.79;99306.28;5052507;28;19925;-67
2022/01/29 07:20:52;;;;;;;;;;;;;;;-8.35;94.73;99302.00;5052335;28;20359;-67
2022/01/29 07:23:20;;;;;;;;;;;;;;;-8.29;94.52;99298.66;5052341;28;20303;-68
2022/01/29 07:25:47;;;;;;;;;;;;;;;-8.25;94.60;99291.03;5052222;28;19931;-67
2022/01/29 07:28:13;;;;;;;;;;;;;;;-8.21;94.38;99285.16;5052316;28;20033;-68
2022/01/29 07:30:41;;;;;;;;;;;;;;;-8.16;94.39;99273.38;5052335;28;19925;-68
2022/01/29 07:33:07;;;;;;;;;;;;;;;-8.13;94.24;99262.44;5052320;28;19931;-68
2022/01/29 07:35:34;;;;;;;;;;;;;;;-8.09;94.09;99256.53;5052367;28;19932;-68
2022/01/29 07:38:00;;;;;;;;;;;;;;;-8.08;94.17;99257.38;5052401;28;20304;-68
2022/01/29 07:40:28;;;;;;;;;;;;;;;-8.07;94.13;99254.00;5052455;28;20326;-68
2022/01/29 07:42:55;;;;;;;;;;;;;;;-8.04;94.21;99247.25;5052435;28;19935;-68
2022/01/29 07:45:21;;;;;;;;;;;;;;;-8.03;94.11;99233.78;5051869;28;20315;-68
2022/01/29 07:47:48;;;;;;;;;;;;;;;-8.03;93.75;99222.84;5052368;28;19924;-68
2022/01/29 07:50:14;;;;;;;;;;;;;;;-8.00;94.13;99217.78;5055424;28;19931;-68
2022/01/29 07:52:41;;;;;;;;;;;;;;;-7.99;93.88;99219.44;5056111;28;19931;-68
2022/01/29 07:55:08;;;;;;;;;;;;;;;-7.98;93.93;99221.16;5056260;28;19925;-68
2022/01/29 07:57:36;;;;;;;;;;;;;;;-7.96;94.02;99215.25;5056183;28;19971;-68
2022/01/29 08:00:03;;;;;;;;;;;;;;;-7.88;93.87;99212.69;5056135;28;20291;-68
2022/01/29 08:02:30;;;;;;;;;;;;;;;-7.85;93.77;99205.09;5056027;28;20375;-67
2022/01/29 08:04:56;;;;;;;;;;;;;;;-7.80;93.83;99210.13;5056057;28;19925;-67
2022/01/29 08:07:23;;;;;;;;;;;;;;;-7.75;93.45;99200.84;5055996;28;19925;-67
2022/01/29 08:09:49;;;;;;;;;;;;;;;-7.70;93.52;99199.94;5055924;28;19924;-68
2022/01/29 08:12:16;;;;;;;;;;;;;;;-7.62;93.23;99202.44;5055731;28;19925;-68
2022/01/29 08:14:44;;;;;;;;;;;;;;;-7.55;92.93;99198.16;5056006;28;19932;-68
2022/01/29 08:17:10;;;;;;;;;;;;;;;-7.54;92.38;99194.81;5055953;28;19925;-68
2022/01/29 08:19:37;;;;;;;;;;;;;;;-7.51;92.80;99202.34;5055910;28;19925;-68
2022/01/29 08:22:04;;;;;;;;;;;;;;;-7.48;92.53;99189.69;5055681;28;19925;-68
2022/01/29 08:24:31;;;;;;;;;;;;;;;-7.46;92.66;99190.53;5055713;28;19931;-68
2022/01/29 08:26:57;;;;;;;;;;;;;;;-7.43;92.79;99169.47;5055645;28;19925;-68
2022/01/29 08:29:24;;;;;;;;;;;;;;;-7.44;92.85;99168.63;5055373;28;20406;-68
2022/01/29 08:31:52;;;;;;;;;;;;;;;-7.42;92.86;99169.47;5055454;28;20390;-68
2022/01/29 08:34:18;;;;;;;;;;;;;;;-7.37;92.59;99157.63;5055311;28;19925;-68
2022/01/29 08:36:45;;;;;;;;;;;;;;;-7.32;92.00;99160.94;5055273;28;19936;-68
2022/01/29 08:39:11;;;;;;;;;;;;;;;-7.29;92.20;99150.81;5055371;28;19947;-68
2022/01/29 08:41:38;;;;;;;;;;;;;;;-7.29;92.16;99155.03;5055314;28;19932;-68
2022/01/29 08:44:05;;;;;;;;;;;;;;;-7.29;92.03;99145.75;5055558;28;19931;-68
2022/01/29 08:46:31;;;;;;;;;;;;;;;-7.25;92.07;99133.91;5055275;28;20030;-69
2022/01/29 08:48:59;;;;;;;;;;;;;;;-7.23;91.85;99115.38;5055164;28;19929;-68
2022/01/29 08:51:26;;;;;;;;;;;;;;;-7.25;91.77;99114.53;5054892;28;19935;-69
2022/01/29 08:53:53;;;;;;;;;;;;;;;-7.18;91.95;99115.31;5054882;28;20375;-68
2022/01/29 08:56:19;;;;;;;;;;;;;;;-7.14;91.92;99108.53;5054806;28;19925;-68
2022/01/29 08:58:46;;;;;;;;;;;;;;;-7.13;92.29;99092.53;5055237;28;19925;-68
2022/01/29 09:01:13;;;;;;;;;;;;;;;-7.06;91.62;99084.06;5054164;28;19925;-69
2022/01/29 09:03:39;;;;;;;;;;;;;;;-7.03;91.57;99081.47;5053978;28;20318;-68
2022/01/29 09:06:07;;;;;;;;;;;;;;;-7.02;91.35;99080.63;5054353;28;19931;-68
2022/01/29 09:08:34;;;;;;;;;;;;;;;-7.01;91.61;99077.25;5054472;28;20371;-67
2022/01/29 09:11:01;;;;;;;;;;;;;;;-7.00;92.29;99063.75;5054466;28;20295;-68
2022/01/29 09:13:27;;;;;;;;;;;;;;;-7.02;92.34;99070.50;5054729;28;19925;-68
2022/01/29 09:15:55;;;;;;;;;;;;;;;-7.02;92.63;99063.75;5054547;28;20367;-68
2022/01/29 09:18:21;;;;;;;;;;;;;;;-7.01;92.86;99060.38;5054637;28;19932;-68
2022/01/29 09:20:48;;;;;;;;;;;;;;;-7.00;93.05;99053.63;5054144;28;19924;-67
2022/01/29 09:23:16;;;;;;;;;;;;;;;-7.01;93.13;99047.75;5054658;28;19925;-67
2022/01/29 09:25:43;;;;;;;;;;;;;;;-6.99;93.60;99045.19;5054299;28;19931;-68
2022/01/29 09:28:11;;;;;;;;;;;;;;;-6.95;93.00;99035.88;5054491;28;19925;-68
2022/01/29 09:30:38;;;;;;;;;;;;;;;-6.96;93.60;99024.94;5054574;28;19931;-68
2022/01/29 09:33:05;;;;;;;;;;;;;;;-6.93;92.95;99024.91;5054186;28;19925;-68
2022/01/29 09:35:32;;;;;;;;;;;;;;;-6.93;93.00;99017.31;5054012;28;19986;-68
2022/01/29 09:37:58;;;;;;;;;;;;;;;-6.90;92.79;99014.75;5053715;28;20386;-68
2022/01/29 09:40:26;;;;;;;;;;;;;;;-6.85;92.88;99013.00;5054132;28;19933;-68
2022/01/29 09:42:53;;;;;;;;;;;;;;;-6.82;92.47;99019.72;5054305;28;19932;-68
2022/01/29 09:45:20;;;;;;;;;;;;;;;-6.77;93.24;99015.44;5053954;28;19932;-67
2022/01/29 09:47:48;;;;;;;;;;;;;;;-6.78;92.69;99013.78;5054172;28;19925;-68
2022/01/29 09:50:16;;;;;;;;;;;;;;;-6.79;92.66;99007.84;5053846;28;19925;-67
2022/01/29 09:52:43;;;;;;;;;;;;;;;-6.72;93.03;99005.25;5054434;28;19924;-68
2022/01/29 09:55:10;;;;;;;;;;;;;;;-6.80;92.50;99006.19;5053946;28;19929;-68
2022/01/29 09:57:39;;;;;;;;;;;;;;;-6.77;92.69;98999.44;5054044;28;19929;-68
2022/01/29 10:00:08;;;;;;;;;;;;;;;-6.78;92.82;98988.47;5053977;28;19924;-67
2022/01/29 10:02:34;;;;;;;;;;;;;;;-6.83;92.40;98993.59;5054136;28;19976;-67
2022/01/29 10:05:01;;;;;;;;;;;;;;;-6.79;92.92;98989.31;5053930;28;19928;-67
2022/01/29 10:07:29;;;;;;;;;;;;;;;-6.79;92.91;98980.03;5052855;28;19925;-67
2022/01/29 10:09:56;;;;;;;;;;;;;;;-6.79;92.87;98974.97;5052369;28;19925;-68
2022/01/29 10:12:24;;;;;;;;;;;;;;;-6.77;92.94;98964.00;5052691;28;19932;-68
2022/01/29 10:14:53;;;;;;;;;;;;;;;-6.73;92.87;98960.56;5053952;28;20015;-68
2022/01/29 10:17:41;;;;;;;;;;;;;;;-6.72;92.44;98952.13;5053675;28;19932;-68
2022/01/29 10:20:12;;;;;;;;;;;;;;;-6.77;92.72;98943.78;5046902;28;19924;-68
2022/01/29 10:22:39;;;;;;;;;;;;;;;-6.71;92.52;98933.56;5053543;28;20414;-68
2022/01/29 10:25:06;;;;;;;;;;;;;;;-6.69;92.79;98929.31;5053521;28;19963;-68
2022/01/29 10:27:32;;;;;;;;;;;;;;;-6.66;92.95;98914.94;5053240;28;19948;-68
2022/01/29 10:30:00;;;;;;;;;;;;;;;-6.60;92.99;98907.28;5053144;28;20695;-68
2022/01/29 10:32:28;;;;;;;;;;;;;;;-6.62;93.17;98901.38;5053410;28;20371;-68
2022/01/29 10:34:56;;;;;;;;;;;;;;;-6.61;92.83;98889.56;5053275;28;19924;-69
2022/01/29 10:37:23;;;;;;;;;;;;;;;-6.66;93.11;98887.09;5053176;28;19925;-68
2022/01/29 10:39:51;;;;;;;;;;;;;;;-6.64;92.93;98879.50;5053192;28;19975;-68
2022/01/29 10:42:18;;;;;;;;;;;;;;;-6.59;93.02;98876.03;5052955;28;19932;-68
2022/01/29 10:44:46;;;;;;;;;;;;;;;-6.60;93.21;98874.38;5053060;28;20367;-68
2022/01/29 10:47:14;;;;;;;;;;;;;;;-6.66;93.05;98860.97;5053200;28;19924;-68
2022/01/29 10:49:50;;;;;;;;;;;;;;;-6.69;93.21;98858.50;5053047;28;19932;-68
2022/01/29 10:52:17;;;;;;;;;;;;;;;-6.70;93.46;98847.56;5052900;28;19931;-68
2022/01/29 10:54:46;;;;;;;;;;;;;;;-6.66;94.19;98841.56;5052884;28;20299;-68
2022/01/29 10:57:15;;;;;;;;;;;;;;;-6.68;94.87;98825.59;5052574;28;19925;-67
2022/01/29 10:59:47;;;;;;;;;;;;;;;-6.63;94.95;98817.91;5053061;28;19925;-67
2022/01/29 11:02:15;;;;;;;;;;;;;;;-6.63;95.48;98812.88;5052753;28;19925;-69
2022/01/29 11:04:42;;;;;;;;;;;;;;;-6.76;95.31;98809.69;5052623;28;19925;-68
2022/01/29 11:07:14;;;;;;;;;;;;;;;-6.66;95.50;98803.63;5052819;28;19929;-68
2022/01/29 11:09:41;;;;;;;;;;;;;;;-6.65;95.73;98804.50;5052513;28;19925;-67
2022/01/29 11:12:09;;;;;;;;;;;;;;;-6.64;95.49;98803.63;5052546;28;20338;-67
2022/01/29 11:14:36;;;;;;;;;;;;;;;-6.58;95.51;98793.38;5052568;28;19924;-67
2022/01/29 11:17:03;;;;;;;;;;;;;;;-6.63;95.62;98782.50;5052642;28;19998;-67
2022/01/29 11:19:32;;;;;;;;;;;;;;;-6.55;95.28;98779.84;5052713;28;19924;-68
2022/01/29 11:22:00;;;;;;;;;;;;;;;-6.51;95.18;98772.19;5052229;28;19960;-68
2022/01/29 11:24:27;;;;;;;;;;;;;;;-6.55;95.13;98769.72;5052305;28;19932;-67
2022/01/29 11:26:54;;;;;;;;;;;;;;;-6.53;95.14;98752.81;5052530;28;19931;-68
2022/01/29 11:29:25;;;;;;;;;;;;;;;-6.53;95.27;98746.06;5052632;28;19925;-67
2022/01/29 11:32:06;;;;;;;;;;;;;;;-6.46;95.28;98736.69;5052849;28;19932;-67
2022/01/29 11:34:34;;;;;;;;;;;;;;;-6.44;95.61;98728.19;5051688;28;19947;-68
2022/01/29 11:37:05;;;;;;;;;;;;;;;-6.63;94.93;98715.06;5052107;28;19931;-68
2022/01/29 11:39:34;;;;;;;;;;;;;;;-6.60;95.33;98702.34;5052468;28;19987;-67
2022/01/29 11:42:19;;;;;;;;;;;;;;;-6.56;94.91;98695.53;5052422;28;19967;-67
2022/01/29 11:44:46;;;;;;;;;;;;;;;-6.53;95.20;98689.59;5052610;28;19931;-68
2022/01/29 11:47:28;;;;;;;;;;;;;;;-6.50;95.31;98675.16;5052011;28;19928;-67
2022/01/29 11:50:16;;;;;;;;;;;;;;;-6.63;95.93;98676.25;5035841;28;20417;-67
2022/01/29 11:52:53;;;;;;;;;;;;;;;-6.54;95.47;98671.03;5052068;28;20411;-67
2022/01/29 11:55:32;;;;;;;;;;;;;;;-6.57;95.59;98655.94;5052215;28;19934;-68
2022/01/29 11:58:32;;;;;;;;;;;;;;;-6.49;96.12;98655.78;5051879;28;19932;-67
2022/01/29 12:00:59;;;;;;;;;;;;;;;-6.51;96.34;98644.84;5051810;28;19925;-68
2022/01/29 12:03:45;;;;;;;;;;;;;;;-6.50;96.35;98638.91;5051811;28;19925;-67
2022/01/29 12:06:19;;;;;;;;;;;;;;;-6.52;96.37;98626.31;5051915;28;19928;-68
2022/01/29 12:09:19;;;;;;;;;;;;;;;-6.43;95.87;98626.09;5052119;28;19925;-67
2022/01/29 12:12:10;;;;;;;;;;;;;;;-6.48;95.53;98617.78;4970965;28;20058;-67
2022/01/29 12:14:37;;;;;;;;;;;;;;;-6.43;95.71;98605.03;4970957;28;19930;-67
2022/01/29 12:17:05;;;;;;;;;;;;;;;-6.37;95.72;98597.31;5019925;28;20326;-67
2022/01/29 12:19:36;;;;;;;;;;;;;;;-6.40;95.98;98597.38;5051759;28;19925;-67
2022/01/29 12:22:08;;;;;;;;;;;;;;;-6.38;96.80;98593.94;5051906;28;19931;-67
2022/01/29 12:24:35;;;;;;;;;;;;;;;-6.37;96.72;98594.78;5051863;28;19924;-66
2022/01/29 12:27:01;;;;;;;;;;;;;;;-6.42;96.59;98581.38;5051611;28;20275;-67
2022/01/29 12:29:28;;;;;;;;;;;;;;;-6.39;97.27;98583.88;5051643;28;19925;-68
2022/01/29 12:31:56;;;;;;;;;;;;;;;-6.38;96.95;98563.59;5051677;28;20329;-67
2022/01/29 12:34:22;;;;;;;;;;;;;;;-6.40;97.18;98569.53;5051713;28;20295;-67
2022/01/29 12:36:49;;;;;;;;;;;;;;;-6.43;97.39;98572.97;5053784;28;19925;-68
2022/01/29 12:39:22;;;;;;;;;;;;;;;-6.48;97.13;98567.16;5055376;28;19925;-68
2022/01/29 12:42:01;;;;;;;;;;;;;;;-6.44;97.60;98557.84;5055278;28;19931;-67
2022/01/29 12:44:27;;;;;;;;;;;;;;;-6.45;97.56;98546.03;5055226;28;20027;-67
2022/01/29 12:46:54;;;;;;;;;;;;;;;-6.46;98.17;98535.09;5055142;28;19925;-68
2022/01/29 12:49:20;;;;;;;;;;;;;;;-6.39;97.40;98530.75;5055429;28;20286;-67
2022/01/29 12:51:51;;;;;;;;;;;;;;;-6.37;97.19;98527.31;5055198;28;20331;-68
2022/01/29 12:54:19;;;;;;;;;;;;;;;-6.47;97.04;98517.41;5055489;28;19925;-67
2022/01/29 12:56:46;;;;;;;;;;;;;;;-6.33;97.51;98517.13;5055095;28;19925;-67